Time;durP1;ratioP1;P1;durP2;ratioP2;P2;SDS_P1;SDS_P2;PMS_P1;PMS_P2;Temp;Humidity;BMP_temperature;BMP_pressure;BME280_temperature;BME280_humidity;BME280_pressure;Samples;Min_cycle;Max_cycle;Signal;HPM_P1;HPM_P2
2023/05/07 00:06:17;;;;;;;21.75;11.32;;;14.70;99.90;;;;;;20551563;28;20399;-42
2023/05/07 00:16:19;;;;;;;19.83;10.57;;;14.60;99.90;;;;;;20543935;28;20038;-42
2023/05/07 00:26:20;;;;;;;16.17;9.57;;;14.60;99.90;;;;;;20554214;28;20430;-42
2023/05/07 00:36:21;;;;;;;20.05;11.80;;;14.60;99.90;;;;;;20559014;28;20375;-42
2023/05/07 00:46:23;;;;;;;19.13;11.75;;;14.60;99.90;;;;;;20551298;28;20046;-42
2023/05/07 00:56:25;;;;;;;16.60;8.95;;;14.60;99.90;;;;;;20549534;28;20034;-42
2023/05/07 01:06:27;;;;;;;15.95;8.90;;;14.60;99.90;;;;;;20550324;28;20199;-42
2023/05/07 01:16:28;;;;;;;13.45;7.70;;;14.60;99.90;;;;;;20554562;28;20043;-42
2023/05/07 01:26:30;;;;;;;12.85;7.45;;;14.40;99.90;;;;;;20535020;28;21411;-41
2023/05/07 01:36:32;;;;;;;11.38;6.60;;;14.40;99.90;;;;;;20542813;28;20463;-41
2023/05/07 01:46:34;;;;;;;11.10;6.78;;;14.30;99.90;;;;;;20547369;28;20575;-41
2023/05/07 01:56:35;;;;;;;10.02;6.38;;;14.20;99.90;;;;;;20554365;28;20042;-42
2023/05/07 02:06:36;;;;;;;8.68;5.47;;;14.10;99.90;;;;;;20557151;28;20038;-42
2023/05/07 02:16:37;;;;;;;7.80;5.22;;;13.90;99.90;;;;;;20558106;28;20037;-42
2023/05/07 02:26:39;;;;;;;8.60;5.60;;;13.90;99.90;;;;;;20547144;28;20035;-42
2023/05/07 02:36:40;;;;;;;9.68;5.43;;;13.90;99.90;;;;;;21341472;23;20146;-90
2023/05/07 02:46:45;;;;;;;6.90;4.60;;;13.80;99.90;;;;;;20617465;28;20375;-90
2023/05/07 02:56:47;;;;;;;8.65;5.43;;;13.90;99.90;;;;;;20627003;28;20042;-91
2023/05/07 03:06:48;;;;;;;9.63;5.28;;;13.90;99.90;;;;;;20610419;28;20035;-88
2023/05/07 03:16:50;;;;;;;10.05;5.32;;;14.00;99.90;;;;;;20610609;28;20117;-89
2023/05/07 03:26:51;;;;;;;7.47;4.75;;;14.00;99.90;;;;;;20600676;28;20037;-89
2023/05/07 03:36:52;;;;;;;8.65;5.07;;;14.00;99.90;;;;;;20582321;28;20478;-89
2023/05/07 03:46:53;;;;;;;10.02;6.32;;;14.00;99.90;;;;;;20613918;28;20038;-90
2023/05/07 03:56:54;;;;;;;12.90;7.15;;;14.00;99.90;;;;;;20583037;28;20054;-90
2023/05/07 04:06:55;;;;;;;12.32;6.38;;;14.00;99.90;;;;;;20607287;28;20049;-89
2023/05/07 04:16:57;;;;;;;10.98;7.72;;;14.00;99.90;;;;;;20601602;28;20112;-90
2023/05/07 04:26:58;;;;;;;10.20;6.50;;;14.00;99.90;;;;;;20607385;28;20044;-89
2023/05/07 04:37:00;;;;;;;10.65;6.40;;;14.10;99.90;;;;;;20588208;28;20082;-86
2023/05/07 04:47:01;;;;;;;10.77;6.25;;;14.10;99.90;;;;;;20607103;28;20066;-84
2023/05/07 04:57:05;;;;;;;11.85;7.40;;;14.00;99.90;;;;;;20580089;28;20046;-84
2023/05/07 05:07:07;;;;;;;12.27;7.72;;;14.00;99.90;;;;;;20612494;28;20038;-84
2023/05/07 05:17:08;;;;;;;13.88;7.72;;;14.10;99.90;;;;;;20590803;28;20042;-84
2023/05/07 05:27:10;;;;;;;14.27;9.23;;;14.10;99.90;;;;;;20589849;28;20038;-84
2023/05/07 05:37:11;;;;;;;14.73;8.63;;;14.20;99.90;;;;;;20586514;28;20087;-84
2023/05/07 05:47:12;;;;;;;14.75;9.30;;;14.20;99.90;;;;;;20607244;28;22015;-84
2023/05/07 05:57:13;;;;;;;17.25;9.57;;;14.30;99.90;;;;;;20586999;28;20054;-85
2023/05/07 06:07:15;;;;;;;19.05;10.15;;;14.30;99.90;;;;;;20599715;28;20433;-84
2023/05/07 06:17:16;;;;;;;13.85;8.77;;;14.30;99.90;;;;;;20614364;28;20049;-84
2023/05/07 06:27:17;;;;;;;17.90;10.27;;;14.20;99.90;;;;;;20505238;28;20117;-88
2023/05/07 06:37:18;;;;;;;14.30;9.30;;;14.20;99.90;;;;;;20580543;28;20413;-84
2023/05/07 06:47:19;;;;;;;14.80;9.95;;;14.30;99.90;;;;;;20583101;28;20031;-84
2023/05/07 06:57:20;;;;;;;20.48;10.95;;;14.30;99.90;;;;;;20595597;28;20042;-81
2023/05/07 07:07:21;;;;;;;17.10;10.00;;;14.30;99.90;;;;;;20615007;28;20038;-84
2023/05/07 07:17:22;;;;;;;20.40;12.68;;;14.40;99.90;;;;;;20597708;28;21672;-84
2023/05/07 07:27:23;;;;;;;19.48;11.75;;;14.50;99.90;;;;;;20604619;28;20041;-83
2023/05/07 07:37:25;;;;;;;21.13;12.10;;;14.60;99.90;;;;;;20589972;28;20043;-84
2023/05/07 07:47:26;;;;;;;19.98;11.35;;;14.60;99.90;;;;;;20599413;28;20049;-84
2023/05/07 07:57:27;;;;;;;19.13;12.15;;;14.80;99.90;;;;;;20602934;28;20046;-83
2023/05/07 08:07:28;;;;;;;17.90;10.60;;;14.90;99.90;;;;;;20569428;28;20141;-84
2023/05/07 08:17:29;;;;;;;14.35;9.32;;;15.20;99.90;;;;;;20594673;28;20382;-84
2023/05/07 08:27:30;;;;;;;17.42;10.23;;;15.40;99.90;;;;;;20587973;28;20037;-85
2023/05/07 08:37:31;;;;;;;14.90;8.90;;;15.70;99.90;;;;;;20598728;28;20042;-82
2023/05/07 08:47:58;;;;;;;11.27;7.47;;;16.20;99.90;;;;;;20600953;28;20030;-82
2023/05/07 08:58:00;;;;;;;9.00;5.88;;;16.60;99.90;;;;;;20612346;28;20065;-80
2023/05/07 09:08:02;;;;;;;8.85;5.50;;;17.10;99.90;;;;;;20612118;28;20057;-82
2023/05/07 09:18:03;;;;;;;8.30;5.40;;;17.50;80.20;;;;;;20617087;28;20490;-82
2023/05/07 09:28:07;;;;;;;7.25;4.57;;;18.00;35.80;;;;;;20602086;28;20053;-81
2023/05/07 09:38:08;;;;;;;6.20;4.63;;;18.00;18.00;;;;;;20612796;28;20046;-81
2023/05/07 09:48:10;;;;;;;9.82;5.07;;;18.20;11.80;;;;;;20618535;28;20049;-79
2023/05/07 09:58:13;;;;;;;5.75;3.35;;;18.70;9.20;;;;;;20593986;28;20045;-82
2023/05/07 10:08:16;;;;;;;7.07;3.33;;;18.80;1.00;;;;;;20631579;28;20038;-81
2023/05/07 10:18:23;;;;;;;4.72;3.28;;;19.10;1.00;;;;;;20616129;28;20049;-80
2023/05/07 10:28:25;;;;;;;6.70;3.40;;;19.30;1.00;;;;;;20602472;28;20549;-80
2023/05/07 10:38:27;;;;;;;6.07;3.10;;;19.30;1.00;;;;;;20608438;28;20042;-80
2023/05/07 10:48:30;;;;;;;5.18;2.65;;;19.80;1.00;;;;;;20604804;28;20052;-80
2023/05/07 10:58:33;;;;;;;5.40;3.05;;;19.90;1.00;;;;;;20575770;28;20376;-81
2023/05/07 11:09:06;;;;;;;4.35;2.92;;;20.50;1.00;;;;;;20599862;28;20528;-80
2023/05/07 11:19:07;;;;;;;4.05;2.47;;;20.30;1.00;;;;;;20572177;28;22670;-79
2023/05/07 11:29:16;;;;;;;4.15;2.58;;;20.60;1.00;;;;;;20589494;28;20038;-80
2023/05/07 11:39:25;;;;;;;3.03;1.08;;;20.70;1.00;;;;;;20578306;28;20125;-79
2023/05/07 11:49:26;;;;;;;4.03;1.80;;;21.20;1.00;;;;;;20583510;28;20042;-79
2023/05/07 11:59:27;;;;;;;6.55;1.67;;;21.00;1.00;;;;;;20569620;23;20042;-41
2023/05/07 12:09:29;;;;;;;6.70;2.08;;;21.40;1.00;;;;;;20563607;28;20057;-41
2023/05/07 12:19:30;;;;;;;3.58;1.70;;;21.90;1.00;;;;;;20566775;28;20049;-41
2023/05/07 12:29:31;;;;;;;4.97;1.73;;;21.70;1.00;;;;;;20558303;28;20046;-41
2023/05/07 12:39:32;;;;;;;2.47;1.58;;;21.60;1.00;;;;;;20564397;28;20394;-41
2023/05/07 12:49:37;;;;;;;6.13;1.48;;;21.60;1.00;;;;;;20548475;28;20038;-41
2023/05/07 12:59:40;;;;;;;5.57;1.83;;;21.30;1.00;;;;;;20547546;28;20043;-42
2023/05/07 13:09:42;;;;;;;4.47;2.08;;;21.10;1.00;;;;;;20579880;28;20070;-42
2023/05/07 13:19:43;;;;;;;6.25;2.00;;;20.70;1.00;;;;;;20631038;28;20391;-42
2023/05/07 13:29:44;;;;;;;2.95;1.80;;;20.60;1.00;;;;;;20632859;28;20030;-41
2023/05/07 13:39:45;;;;;;;4.38;2.10;;;21.00;1.00;;;;;;20609414;28;20035;-41
2023/05/07 13:49:49;;;;;;;4.63;1.88;;;20.90;1.00;;;;;;20631852;28;20041;-41
2023/05/07 13:59:50;;;;;;;3.97;1.75;;;20.40;1.00;;;;;;20657244;28;20086;-41
2023/05/07 14:09:51;;;;;;;4.10;1.38;;;20.00;1.00;;;;;;20643547;28;20096;-41
2023/05/07 14:19:54;;;;;;;4.88;2.50;;;19.80;1.00;;;;;;20634495;28;20610;-41
2023/05/07 14:29:55;;;;;;;9.75;3.80;;;19.90;1.00;;;;;;20640144;28;20111;-42
2023/05/07 14:39:56;;;;;;;6.15;3.47;;;19.70;1.00;;;;;;20635522;28;20042;-41
2023/05/07 14:49:58;;;;;;;5.15;3.20;;;19.00;1.00;;;;;;20637330;28;20042;-41
2023/05/07 14:59:59;;;;;;;3.90;2.25;;;18.10;1.00;;;;;;20641381;28;20050;-41
2023/05/07 15:10:00;;;;;;;2.53;1.58;;;17.30;1.00;;;;;;20636860;28;20506;-41
2023/05/07 15:20:01;;;;;;;4.63;2.47;;;16.90;1.00;;;;;;20639584;28;20103;-41
2023/05/07 15:30:02;;;;;;;5.18;2.95;;;16.60;7.70;;;;;;20637243;28;20043;-41
2023/05/07 15:40:06;;;;;;;9.68;4.95;;;16.00;45.50;;;;;;20636641;28;20033;-41
2023/05/07 15:50:08;;;;;;;8.18;4.90;;;15.90;99.90;;;;;;20640314;28;20041;-41
2023/05/07 16:00:11;;;;;;;4.60;3.08;;;16.20;99.90;;;;;;20647687;28;20314;-41
2023/05/07 16:10:12;;;;;;;3.67;2.20;;;16.10;99.90;;;;;;20653772;28;20045;-41
2023/05/07 16:20:14;;;;;;;4.45;2.90;;;16.20;99.90;;;;;;20616463;28;20029;-41
2023/05/07 16:30:15;;;;;;;3.78;2.47;;;16.30;99.90;;;;;;20644260;28;20041;-41
2023/05/07 16:40:20;;;;;;;4.30;1.75;;;16.40;99.90;;;;;;20649396;28;20131;-41
2023/05/07 16:50:22;;;;;;;2.20;1.50;;;16.60;99.90;;;;;;20636708;28;20053;-41
2023/05/07 17:00:23;;;;;;;3.53;1.52;;;16.70;99.90;;;;;;20633398;28;20600;-41
2023/05/07 17:10:24;;;;;;;5.00;2.35;;;16.70;99.90;;;;;;20644850;28;20037;-41
2023/05/07 17:20:26;;;;;;;2.92;1.70;;;16.80;99.90;;;;;;20641957;28;20045;-41
2023/05/07 17:30:27;;;;;;;3.20;1.45;;;16.90;99.90;;;;;;20651852;28;20533;-41
2023/05/07 17:40:30;;;;;;;2.35;1.10;;;16.80;99.90;;;;;;20644212;28;20042;-41
2023/05/07 17:50:32;;;;;;;1.52;0.80;;;16.80;83.90;;;;;;20635355;28;20037;-41
2023/05/07 18:00:33;;;;;;;1.77;0.75;;;16.70;83.70;;;;;;20637408;28;20045;-41
2023/05/07 18:10:34;;;;;;;1.25;0.82;;;16.70;62.00;;;;;;20643012;28;20502;-41
2023/05/07 18:20:35;;;;;;;2.22;1.42;;;16.60;62.80;;;;;;20660741;28;20133;-41
2023/05/07 18:30:36;;;;;;;2.28;1.08;;;16.50;75.10;;;;;;20653539;28;20047;-41
2023/05/07 18:40:42;;;;;;;3.20;1.33;;;16.50;69.80;;;;;;20656304;28;20117;-41
2023/05/07 18:50:44;;;;;;;2.30;1.35;;;16.50;90.00;;;;;;20641413;28;20607;-41
2023/05/07 19:00:46;;;;;;;2.20;1.45;;;16.40;96.50;;;;;;20632426;28;20037;-41
2023/05/07 19:10:47;;;;;;;2.58;1.58;;;16.40;99.90;;;;;;20644393;28;20498;-41
2023/05/07 19:20:48;;;;;;;5.60;2.30;;;16.30;99.90;;;;;;20648796;28;20219;-41
2023/05/07 19:30:51;;;;;;;7.82;2.17;;;16.10;99.90;;;;;;20646951;28;20049;-41
2023/05/07 19:40:56;;;;;;;5.20;2.13;;;16.10;99.90;;;;;;20645048;28;20038;-41
2023/05/07 19:50:58;;;;;;;4.22;1.75;;;16.00;99.90;;;;;;20634928;28;20049;-44
2023/05/07 20:01:00;;;;;;;4.68;2.08;;;16.00;99.90;;;;;;20636950;28;20075;-42
2023/05/07 20:11:01;;;;;;;3.15;1.83;;;15.90;99.90;;;;;;20641387;28;20817;-42
2023/05/07 20:21:03;;;;;;;3.05;1.88;;;15.80;99.90;;;;;;20650320;28;21511;-42
2023/05/07 20:31:04;;;;;;;3.28;1.98;;;15.50;99.90;;;;;;20649352;28;20477;-42
2023/05/07 20:41:11;;;;;;;3.55;1.90;;;15.20;99.90;;;;;;20659977;28;20053;-42
2023/05/07 20:51:15;;;;;;;4.18;2.13;;;15.20;99.90;;;;;;20641501;28;20101;-43
2023/05/07 21:01:16;;;;;;;4.22;2.60;;;14.90;99.90;;;;;;20641270;28;20478;-42
2023/05/07 21:11:17;;;;;;;4.53;2.88;;;14.80;99.90;;;;;;20648922;28;20556;-42
2023/05/07 21:21:18;;;;;;;5.30;2.63;;;14.70;99.90;;;;;;20648601;28;20037;-43
2023/05/07 21:31:20;;;;;;;4.07;2.28;;;14.50;99.90;;;;;;20637919;28;20052;-42
2023/05/07 21:41:21;;;;;;;3.47;2.00;;;14.30;99.90;;;;;;20637643;28;20033;-42
2023/05/07 21:51:22;;;;;;;5.07;2.88;;;14.30;99.90;;;;;;20640632;28;20670;-42
2023/05/07 22:01:23;;;;;;;4.53;2.70;;;14.30;99.90;;;;;;20640197;28;20126;-42
2023/05/07 22:11:25;;;;;;;5.40;3.08;;;14.30;99.90;;;;;;20645425;28;20077;-42
2023/05/07 22:21:26;;;;;;;4.95;2.88;;;14.20;99.90;;;;;;20645825;28;20068;-42
2023/05/07 22:31:27;;;;;;;5.63;3.15;;;14.10;99.90;;;;;;20654995;28;20959;-42
2023/05/07 22:41:28;;;;;;;5.25;3.15;;;14.00;99.90;;;;;;20658423;28;20051;-42
2023/05/07 22:51:29;;;;;;;7.70;3.85;;;13.90;99.90;;;;;;20659390;28;20042;-42
2023/05/07 23:01:30;;;;;;;6.15;3.50;;;13.80;99.90;;;;;;20624964;28;20429;-42
2023/05/07 23:11:31;;;;;;;7.15;3.92;;;13.70;99.90;;;;;;20645529;28;20045;-42
2023/05/07 23:21:32;;;;;;;6.25;3.60;;;13.70;99.90;;;;;;20641859;28;20413;-42
2023/05/07 23:31:34;;;;;;;7.72;4.05;;;13.60;99.90;;;;;;20646142;28;21348;-42
2023/05/07 23:41:35;;;;;;;7.82;4.13;;;13.50;99.90;;;;;;20640692;28;20038;-42
2023/05/07 23:51:36;;;;;;;5.72;3.72;;;13.60;99.90;;;;;;20634027;28;20041;-42
